Time;durP1;ratioP1;P1;durP2;ratioP2;P2;SDS_P1;SDS_P2;PMS_P1;PMS_P2;Temp;Humidity;BMP_temperature;BMP_pressure;BME280_temperature;BME280_humidity;BME280_pressure;Samples;Min_cycle;Max_cycle;Signal;HPM_P1;HPM_P2
2021/09/08 00:00:23;;;;;;;17.33;4.90;;;;;;;5.04;70.30;102240.16;1612521;89;21302;-60
2021/09/08 00:02:59;;;;;;;31.70;9.23;;;;;;;5.04;70.30;102240.16;1612494;89;21650;-60
2021/09/08 00:05:32;;;;;;;23.67;10.72;;;;;;;5.02;70.49;102237.22;1612440;89;21848;-60
2021/09/08 00:08:05;;;;;;;20.27;8.13;;;;;;;5.00;70.49;102242.47;1613078;89;21293;-60
2021/09/08 00:10:40;;;;;;;29.05;8.30;;;;;;;4.98;70.47;102244.28;1611522;88;21827;-60
2021/09/08 00:13:14;;;;;;;16.25;6.30;;;;;;;4.92;70.37;102243.17;1611590;89;21201;-60
2021/09/08 00:15:47;;;;;;;17.50;5.37;;;;;;;4.86;70.37;102243.39;1612466;89;21333;-60
2021/09/08 00:18:20;;;;;;;20.30;5.57;;;;;;;4.82;70.44;102248.74;1613071;89;21297;-60
2021/09/08 00:20:55;;;;;;;18.60;5.30;;;;;;;4.81;70.51;102253.52;1612391;89;21781;-60
2021/09/08 00:23:28;;;;;;;9.70;3.67;;;;;;;4.80;70.61;102247.95;1612513;89;21313;-60
2021/09/08 00:26:01;;;;;;;18.55;5.70;;;;;;;4.80;70.70;102248.77;1612519;89;21314;-60
2021/09/08 00:28:34;;;;;;;11.47;4.63;;;;;;;4.81;70.67;102245.73;1613397;89;21170;-60
2021/09/08 00:31:07;;;;;;;13.40;4.55;;;;;;;4.80;70.58;102257.86;1612278;89;21534;-59
2021/09/08 00:33:40;;;;;;;;;;;;;;;4.78;70.46;102258.36;1614631;89;21183;-59
2021/09/08 00:36:14;;;;;;;29.70;7.35;;;;;;;4.75;70.51;102262.38;1611549;89;20179;-60
2021/09/08 00:38:49;;;;;;;26.05;6.10;;;;;;;4.70;70.49;102265.56;1613071;89;21808;-60
2021/09/08 00:41:23;;;;;;;12.43;4.60;;;;;;;4.66;70.59;102257.02;1611715;87;21254;-60
2021/09/08 00:43:57;;;;;;;16.40;5.22;;;;;;;4.64;70.62;102262.71;1612383;89;21214;-60
2021/09/08 00:46:30;;;;;;;;;;;;;;;4.62;70.69;102259.33;1591555;89;21210;-58
2021/09/08 00:49:05;;;;;;;;;;;;;;;4.60;70.80;102266.31;1613833;88;20248;-58
2021/09/08 00:51:39;;;;;;;14.38;4.40;;;;;;;4.57;70.89;102264.25;1612142;89;20248;-61
2021/09/08 00:54:15;;;;;;;13.65;4.83;;;;;;;4.54;70.92;102261.75;1612117;89;21353;-61
2021/09/08 00:56:51;;;;;;;13.65;4.15;;;;;;;4.53;70.84;102256.17;1612153;89;21301;-60
2021/09/08 00:59:24;;;;;;;9.68;4.87;;;;;;;4.52;70.69;102263.10;1589165;89;21288;-61
2021/09/08 01:02:00;;;;;;;11.48;4.33;;;;;;;4.52;70.62;102263.55;1612187;89;21218;-60
2021/09/08 01:04:34;;;;;;;10.88;4.75;;;;;;;4.48;70.54;102265.41;1612247;89;21305;-61
2021/09/08 01:07:09;;;;;;;25.27;7.20;;;;;;;4.43;70.55;102263.84;1611392;89;21245;-61
2021/09/08 01:09:46;;;;;;;17.40;5.42;;;;;;;4.38;70.56;102270.48;1612948;89;21853;-60
2021/09/08 01:12:21;;;;;;;10.82;4.15;;;;;;;4.36;70.62;102270.13;1612085;89;21321;-61
2021/09/08 01:14:55;;;;;;;11.53;4.67;;;;;;;4.35;70.71;102275.75;1611542;88;21234;-60
2021/09/08 01:17:29;;;;;;;17.50;5.03;;;;;;;4.32;70.66;102269.38;1569082;89;21308;-60
2021/09/08 01:20:03;;;;;;;;;;;;;;;4.29;70.70;102262.98;1614174;89;21174;-61
2021/09/08 01:22:42;;;;;;;16.02;5.00;;;;;;;4.27;70.73;102276.89;1612106;89;20180;-61
2021/09/08 01:25:18;;;;;;;16.85;5.50;;;;;;;4.24;71.07;102271.35;1611897;89;21288;-61
2021/09/08 01:27:52;;;;;;;12.58;4.85;;;;;;;4.24;71.05;102271.80;1611844;89;21214;-60
2021/09/08 01:30:26;;;;;;;11.75;5.10;;;;;;;4.19;71.06;102269.34;1612842;89;21297;-60
2021/09/08 01:33:00;;;;;;;11.20;5.17;;;;;;;4.19;71.14;102274.97;1611864;89;21250;-60
2021/09/08 01:35:33;;;;;;;16.60;5.47;;;;;;;4.17;70.98;102269.84;1611854;89;21311;-60
2021/09/08 01:38:06;;;;;;;14.10;4.75;;;;;;;4.12;70.96;102269.12;1611999;89;21190;-61
2021/09/08 01:40:39;;;;;;;12.85;4.83;;;;;;;4.11;70.96;102267.89;1615538;88;21312;-60
2021/09/08 01:43:12;;;;;;;11.73;4.83;;;;;;;4.07;70.94;102264.53;1628196;88;21320;-61
2021/09/08 01:45:46;;;;;;;12.65;3.65;;;;;;;4.05;71.04;102265.88;1628040;88;21177;-61
2021/09/08 01:48:19;;;;;;;7.73;3.33;;;;;;;4.06;70.99;102265.41;1628287;87;21284;-61
2021/09/08 01:50:52;;;;;;;;;;;;;;;4.02;70.82;102265.11;1608213;88;21892;-60
2021/09/08 01:53:28;;;;;;;8.25;3.90;;;;;;;3.99;70.73;102262.16;1627925;88;20268;-59
2021/09/08 01:56:01;;;;;;;6.95;3.58;;;;;;;3.94;70.66;102257.55;1628205;88;21348;-60
2021/09/08 01:58:34;;;;;;;6.47;2.87;;;;;;;3.89;70.57;102256.02;1628183;88;21213;-60
2021/09/08 02:01:07;;;;;;;7.83;3.52;;;;;;;3.86;70.69;102259.55;1629481;88;21284;-60
2021/09/08 02:03:41;;;;;;;9.23;3.87;;;;;;;3.85;70.68;102256.98;1628038;88;21374;-61
2021/09/08 02:06:23;;;;;;;8.95;3.60;;;;;;;3.83;70.65;102261.36;1628112;88;21320;-60
2021/09/08 02:08:57;;;;;;;12.65;3.30;;;;;;;3.79;70.53;102255.88;1627986;88;21855;-59
2021/09/08 02:11:30;;;;;;;7.50;4.00;;;;;;;3.75;70.49;102252.98;1629165;88;21808;-59
2021/09/08 02:14:03;;;;;;;9.90;3.83;;;;;;;3.73;70.58;102252.16;1628020;88;21319;-60
2021/09/08 02:16:36;;;;;;;;;;;;;;;3.71;70.76;102251.35;1631698;88;21166;-59
2021/09/08 02:19:09;;;;;;;7.97;3.65;;;;;;;3.71;70.76;102259.12;1605528;88;20239;-60
2021/09/08 02:21:42;;;;;;;12.87;3.60;;;;;;;3.68;70.84;102254.05;1629497;88;21259;-59
2021/09/08 02:24:15;;;;;;;8.67;3.80;;;;;;;3.66;70.84;102260.99;1628390;88;21493;-59
2021/09/08 02:26:48;;;;;;;16.73;3.85;;;;;;;3.64;70.89;102259.75;1629128;88;21318;-59
2021/09/08 02:29:22;;;;;;;14.60;4.33;;;;;;;3.64;71.11;102253.28;1627971;88;21307;-59
2021/09/08 02:31:56;;;;;;;9.27;4.10;;;;;;;3.67;71.19;102252.34;1629587;88;21280;-59
2021/09/08 02:34:29;;;;;;;19.13;3.37;;;;;;;3.67;71.15;102247.16;1628196;88;21636;-59
2021/09/08 02:37:02;;;;;;;17.42;4.08;;;;;;;3.64;71.08;102248.09;1629239;88;21166;-60
2021/09/08 02:39:35;;;;;;;13.73;3.77;;;;;;;3.62;71.11;102249.89;1628120;88;21213;-59
2021/09/08 02:42:08;;;;;;;15.30;3.87;;;;;;;3.63;71.12;102250.27;1629163;88;21355;-60
2021/09/08 02:44:41;;;;;;;10.10;3.80;;;;;;;3.63;71.12;102254.63;1628958;88;21831;-60
2021/09/08 02:47:14;;;;;;;10.65;3.52;;;;;;;3.64;71.08;102257.16;1629073;87;21316;-59
2021/09/08 02:49:47;;;;;;;;;;;;;;;3.65;71.06;102248.95;1630211;88;21189;-59
2021/09/08 02:52:20;;;;;;;11.10;3.02;;;;;;;3.66;71.01;102248.05;1629254;88;20215;-59
2021/09/08 02:54:53;;;;;;;16.05;3.60;;;;;;;3.65;70.95;102252.40;1628244;88;21357;-59
2021/09/08 02:57:27;;;;;;;14.38;3.87;;;;;;;3.65;70.89;102249.81;1629171;88;21840;-59
2021/09/08 03:00:00;;;;;;;11.97;3.20;;;;;;;3.64;70.75;102251.98;1628292;88;21348;-59
2021/09/08 03:02:34;;;;;;;15.63;3.63;;;;;;;3.64;70.67;102255.02;1629567;88;21320;-59
2021/09/08 03:05:09;;;;;;;9.53;3.20;;;;;;;3.65;70.59;102250.25;1605577;88;21312;-60
2021/09/08 03:07:42;;;;;;;6.03;3.05;;;;;;;3.67;70.46;102247.16;1629081;88;21280;-59
2021/09/08 03:10:16;;;;;;;38.97;16.10;;;;;;;3.68;70.28;102250.99;1628206;88;21361;-59
2021/09/08 03:12:50;;;;;;;313.07;109.42;;;;;;;3.71;70.21;102247.47;1627718;88;21232;-59
2021/09/08 03:15:23;;;;;;;240.30;89.42;;;;;;;3.75;70.16;102248.62;1628098;88;21873;-59
2021/09/08 03:17:56;;;;;;;133.50;51.77;;;;;;;3.82;70.21;102251.44;1629287;88;21293;-59
2021/09/08 03:20:30;;;;;;;97.37;39.80;;;;;;;3.90;70.15;102252.52;1627936;88;22082;-59
2021/09/08 03:23:03;;;;;;;58.58;24.72;;;;;;;3.97;70.08;102247.11;1629540;88;21280;-60
2021/09/08 03:25:36;;;;;;;59.55;23.30;;;;;;;4.05;70.04;102250.77;1627922;88;21206;-59
2021/09/08 03:28:10;;;;;;;49.20;17.42;;;;;;;4.13;69.93;102247.52;1629541;88;21280;-59
2021/09/08 03:30:43;;;;;;;34.08;13.68;;;;;;;4.19;69.90;102242.12;1627913;88;21217;-59
2021/09/08 03:33:16;;;;;;;21.02;8.83;;;;;;;4.26;69.94;102241.04;1629158;88;21173;-59
2021/09/08 03:35:50;;;;;;;21.07;8.25;;;;;;;4.35;70.02;102242.04;1627968;88;21201;-59
2021/09/08 03:38:23;;;;;;;20.17;7.08;;;;;;;4.47;70.12;102246.84;1628970;88;21293;-59
2021/09/08 03:40:56;;;;;;;14.03;6.80;;;;;;;4.61;70.22;102244.64;1628049;88;21316;-59
2021/09/08 03:43:29;;;;;;;16.47;6.33;;;;;;;4.78;70.24;102238.08;1623734;88;21436;-59
2021/09/08 03:46:08;;;;;;;;;;;;;;;4.96;70.10;102239.59;1613999;89;21193;-59
2021/09/08 03:48:37;;;;;;;24.32;9.28;;;;;;;5.15;69.94;102239.36;1612030;88;20256;-59
2021/09/08 03:51:10;;;;;;;20.85;9.10;;;;;;;5.33;69.55;102241.74;1611937;89;21246;-59
2021/09/08 03:53:44;;;;;;;22.75;8.15;;;;;;;5.51;69.18;102239.80;1613277;89;21274;-59
2021/09/08 03:56:17;;;;;;;;;;;;;;;5.68;68.73;102233.98;1614176;89;21354;-59
2021/09/08 03:58:51;;;;;;;24.67;8.38;;;;;;;5.92;68.23;102232.62;1613286;89;20285;-58
2021/09/08 04:01:24;;;;;;;20.80;7.13;;;;;;;6.24;67.75;102231.38;1611957;89;21305;-58
2021/09/08 04:03:57;;;;;;;13.75;5.75;;;;;;;6.58;67.13;102236.94;1613341;89;21329;-58
2021/09/08 04:06:31;;;;;;;15.30;6.12;;;;;;;7.15;66.25;102232.34;1611657;89;21388;-58
2021/09/08 04:09:05;;;;;;;10.25;5.17;;;;;;;7.70;64.84;102235.09;1611355;88;21182;-59
2021/09/08 04:11:39;;;;;;;11.03;4.62;;;;;;;8.22;63.76;102234.36;1611303;89;21305;-60
2021/09/08 04:14:13;;;;;;;17.87;5.17;;;;;;;8.96;62.21;102229.84;1612887;89;21198;-59
2021/09/08 04:16:46;;;;;;;15.55;5.75;;;;;;;9.90;60.19;102232.23;1588457;89;21345;-59
2021/09/08 04:19:20;;;;;;;21.27;6.47;;;;;;;10.79;57.83;102227.98;1613236;89;21338;-59
2021/09/08 04:21:53;;;;;;;13.60;5.97;;;;;;;11.42;55.51;102232.48;1611781;89;21226;-59
2021/09/08 04:24:26;;;;;;;15.45;6.25;;;;;;;11.82;53.82;102228.75;1612970;89;21286;-59
2021/09/08 04:27:00;;;;;;;15.18;6.60;;;;;;;12.53;52.01;102229.38;1609835;87;21234;-59
2021/09/08 04:29:34;;;;;;;12.70;5.92;;;;;;;13.35;49.73;102220.23;1610782;87;21294;-59
2021/09/08 04:32:08;;;;;;;15.48;7.17;;;;;;;14.13;47.77;102223.45;1596809;87;21388;-60
2021/09/08 04:34:41;;;;;;;18.30;7.53;;;;;;;14.85;45.76;102221.15;1605222;87;21412;-60
2021/09/08 04:37:15;;;;;;;20.15;8.28;;;;;;;15.54;43.97;102219.33;1599783;87;21855;-61
2021/09/08 04:39:48;;;;;;;20.35;9.05;;;;;;;16.14;42.31;102228.47;1608425;89;21282;-62
2021/09/08 04:42:22;;;;;;;22.62;8.73;;;;;;;16.72;40.98;102227.20;1600354;89;21376;-61
2021/09/08 04:44:55;;;;;;;19.10;7.67;;;;;;;17.31;39.44;102216.02;1612970;87;21335;-60
2021/09/08 04:47:28;;;;;;;14.78;6.40;;;;;;;17.74;38.40;102215.32;1625121;87;21391;-60
2021/09/08 04:50:01;;;;;;;14.45;7.10;;;;;;;18.23;37.76;102218.40;1619365;87;21300;-60
2021/09/08 04:52:35;;;;;;;12.88;5.40;;;;;;;18.83;36.79;102222.61;1624733;87;21338;-62
2021/09/08 04:55:11;;;;;;;13.83;5.22;;;;;;;19.38;35.69;102219.63;1625325;87;21213;-60
2021/09/08 04:57:44;;;;;;;16.73;5.47;;;;;;;19.89;34.00;102223.10;1621110;87;21212;-59
2021/09/08 05:00:18;;;;;;;13.80;5.10;;;;;;;20.36;33.22;102219.30;1610975;88;21293;-61
2021/09/08 05:02:51;;;;;;;10.20;5.17;;;;;;;20.89;31.99;102217.08;1618225;87;21307;-60
2021/09/08 05:05:24;;;;;;;12.37;5.20;;;;;;;21.37;31.22;102213.41;1624088;87;21198;-61
2021/09/08 05:07:58;;;;;;;11.88;4.90;;;;;;;21.88;29.94;102217.80;1588834;88;21237;-62
2021/09/08 05:10:32;;;;;;;11.80;4.62;;;;;;;22.35;29.31;102216.25;1582038;89;21245;-60
2021/09/08 05:13:05;;;;;;;10.20;4.80;;;;;;;22.90;28.43;102210.26;1584287;89;21950;-61
2021/09/08 05:15:39;;;;;;;8.58;4.50;;;;;;;23.40;27.72;102206.83;1622939;87;21712;-61
2021/09/08 05:18:13;;;;;;;11.18;4.90;;;;;;;23.72;26.93;102205.34;1625533;87;21432;-62
2021/09/08 05:20:46;;;;;;;;;;;;;;;24.12;26.52;102207.00;1626706;88;21288;-63
2021/09/08 05:23:18;;;;;;;12.53;4.83;;;;;;;24.44;26.11;102205.41;1624176;87;20291;-62
2021/09/08 05:25:51;;;;;;;;;;;;;;;24.84;25.26;102199.41;1629473;87;21243;-63
2021/09/08 05:28:24;;;;;;;18.27;5.25;;;;;;;25.30;24.84;102202.25;1625925;87;20298;-67
2021/09/08 05:30:57;;;;;;;13.60;4.90;;;;;;;25.62;24.59;102197.88;1625144;87;21293;-64
2021/09/08 05:33:32;;;;;;;10.58;4.87;;;;;;;25.98;24.03;102201.36;1623282;87;21267;-63
2021/09/08 05:36:05;;;;;;;9.85;4.70;;;;;;;26.41;23.54;102198.24;1626965;87;21322;-66
2021/09/08 05:38:38;;;;;;;12.07;5.03;;;;;;;26.94;22.61;102187.40;1625755;87;21190;-65
2021/09/08 05:41:12;;;;;;;15.78;4.87;;;;;;;27.44;22.19;102193.02;1623415;87;21371;-65
2021/09/08 05:43:46;;;;;;;14.50;4.80;;;;;;;28.01;21.41;102191.27;1625006;87;21192;-64
2021/09/08 05:46:20;;;;;;;16.15;5.50;;;;;;;28.33;20.96;102195.86;1616236;87;21185;-65
2021/09/08 05:48:54;;;;;;;12.47;5.05;;;;;;;28.69;20.78;102196.32;1609410;87;22299;-66
2021/09/08 05:51:28;;;;;;;7.12;3.95;;;;;;;29.01;20.25;102194.62;1608995;87;21284;-67
2021/09/08 05:54:01;;;;;;;9.43;4.45;;;;;;;29.35;19.86;102188.94;1607506;88;21267;-65
2021/09/08 05:56:35;;;;;;;;;;;;;;;29.80;19.27;102181.73;1610758;87;21190;-67
2021/09/08 05:59:08;;;;;;;7.95;4.17;;;;;;;30.21;18.59;102185.83;1610883;87;20308;-67
2021/09/08 06:01:41;;;;;;;15.15;4.20;;;;;;;30.42;18.12;102176.86;1603281;87;21316;-66
2021/09/08 06:04:15;;;;;;;9.48;4.62;;;;;;;30.74;18.18;102179.50;1596787;88;21904;-67
2021/09/08 06:06:48;;;;;;;11.88;4.67;;;;;;;31.11;17.82;102175.80;1625759;87;21190;-66
2021/09/08 06:09:21;;;;;;;14.85;7.00;;;;;;;31.48;17.42;102172.03;1595052;88;21335;-65
2021/09/08 06:11:58;;;;;;;13.75;8.03;;;;;;;31.82;16.78;102171.37;1696353;83;22090;-66
2021/09/08 06:14:32;;;;;;;14.83;9.85;;;;;;;32.24;16.27;102176.30;1701219;83;21184;-64
2021/09/08 06:17:06;;;;;;;25.20;11.93;;;;;;;32.56;15.90;102174.11;1703231;83;21177;-66
2021/09/08 06:19:39;;;;;;;17.23;6.78;;;;;;;32.86;15.52;102169.40;1681266;84;21346;-67
2021/09/08 06:22:13;;;;;;;12.30;5.67;;;;;;;33.01;15.48;102156.67;1673762;84;21227;-66
2021/09/08 06:24:46;;;;;;;16.85;5.60;;;;;;;33.28;15.22;102157.83;1692845;83;21821;-67
2021/09/08 06:27:19;;;;;;;16.42;4.80;;;;;;;33.64;15.12;102156.66;1698274;83;21332;-66
2021/09/08 06:29:52;;;;;;;6.33;3.20;;;;;;;34.11;14.66;102157.26;1706459;82;21212;-64
2021/09/08 06:32:25;;;;;;;6.50;2.72;;;;;;;34.50;14.25;102155.74;1705588;83;21319;-66
2021/09/08 06:35:00;;;;;;;7.00;2.47;;;;;;;34.86;13.79;102143.50;1709063;82;22626;-67
2021/09/08 06:37:33;;;;;;;7.12;2.42;;;;;;;35.10;13.59;102146.83;1710397;82;21179;-65
2021/09/08 06:40:07;;;;;;;3.98;2.40;;;;;;;35.55;13.31;102148.75;1703757;83;21291;-67
2021/09/08 06:42:41;;;;;;;5.33;2.47;;;;;;;35.84;12.72;102145.23;1701939;82;21212;-66
2021/09/08 06:45:17;;;;;;;6.28;2.25;;;;;;;36.01;12.61;102146.50;1701811;83;21548;-65
2021/09/08 06:47:50;;;;;;;6.67;2.52;;;;;;;36.14;12.42;102148.23;1716866;81;21202;-64
2021/09/08 06:50:23;;;;;;;4.40;2.50;;;;;;;36.26;12.30;102150.24;1729357;81;21180;-65
2021/09/08 06:52:58;;;;;;;6.08;2.30;;;;;;;36.28;11.91;102143.98;1694787;83;21125;-66
2021/09/08 06:55:32;;;;;;;5.70;2.50;;;;;;;36.05;12.29;102142.16;1671976;84;21409;-64
2021/09/08 06:58:05;;;;;;;8.75;2.87;;;;;;;35.89;12.52;102135.73;1671725;83;21327;-65
2021/09/08 07:00:38;;;;;;;8.45;3.10;;;;;;;35.84;12.63;102141.14;1680029;83;21370;-64
2021/09/08 07:03:11;;;;;;;7.03;3.02;;;;;;;36.08;12.41;102141.65;1670954;84;21373;-66
2021/09/08 07:05:46;;;;;;;11.15;3.35;;;;;;;36.44;12.40;102138.94;1641595;86;21251;-66
2021/09/08 07:08:19;;;;;;;2.12;1.80;;;;;;;36.75;11.86;102141.86;1694528;83;21366;-68
2021/09/08 07:10:55;;;;;;;6.67;2.37;;;;;;;37.09;11.13;102141.80;1693495;83;21232;-68
2021/09/08 07:13:28;;;;;;;7.67;3.30;;;;;;;37.49;10.94;102138.39;1727202;81;21285;-65
2021/09/08 07:16:01;;;;;;;4.67;2.25;;;;;;;37.82;10.68;102141.98;1727589;81;21156;-68
2021/09/08 07:18:34;;;;;;;4.67;1.70;;;;;;;37.89;10.62;102138.47;1728300;81;22068;-65
2021/09/08 07:21:08;;;;;;;14.85;2.45;;;;;;;37.62;10.39;102131.02;1729386;81;21328;-66
2021/09/08 07:23:41;;;;;;;5.37;1.90;;;;;;;37.50;10.29;102132.64;1729129;81;21258;-67
2021/09/08 07:26:16;;;;;;;10.05;2.50;;;;;;;37.29;10.52;102124.63;1729702;81;21287;-66
2021/09/08 07:28:49;;;;;;;4.33;2.35;;;;;;;37.27;10.52;102127.64;1729853;81;21833;-68
2021/09/08 07:31:22;;;;;;;6.17;2.60;;;;;;;37.48;10.40;102118.97;1730707;81;21525;-70
2021/09/08 07:33:56;;;;;;;6.97;2.30;;;;;;;37.46;10.42;102116.52;1731389;81;21198;-65
2021/09/08 07:36:29;;;;;;;8.20;2.60;;;;;;;37.21;10.26;102115.08;1736080;81;21274;-66
2021/09/08 07:39:03;;;;;;;3.67;1.80;;;;;;;37.04;10.36;102118.56;1728406;81;21152;-69
2021/09/08 07:41:36;;;;;;;5.75;2.08;;;;;;;37.39;9.80;102113.77;1730664;81;21949;-68
2021/09/08 07:44:09;;;;;;;7.67;1.92;;;;;;;37.72;9.93;102105.06;1729576;81;21944;-73
2021/09/08 07:46:42;;;;;;;4.35;1.75;;;;;;;37.69;9.80;102106.97;1724804;81;21768;-68
2021/09/08 07:49:15;;;;;;;4.28;2.10;;;;;;;37.20;10.02;102108.50;1734580;81;21808;-67
2021/09/08 07:51:49;;;;;;;3.12;1.65;;;;;;;36.78;10.47;102112.12;1729080;81;21231;-66
2021/09/08 07:54:22;;;;;;;3.47;1.92;;;;;;;36.64;10.25;102116.98;1733163;81;21363;-74
2021/09/08 07:56:58;;;;;;;6.35;1.70;;;;;;;36.88;9.71;102107.25;1731666;81;21285;-69
2021/09/08 07:59:32;;;;;;;3.37;1.50;;;;;;;37.10;9.73;102101.09;1730430;81;21820;-66
2021/09/08 08:02:09;;;;;;;4.50;1.92;;;;;;;37.10;9.70;102095.63;1729760;81;21198;-67
2021/09/08 08:04:42;;;;;;;4.22;1.87;;;;;;;36.34;10.05;102102.57;1728788;81;21816;-68
2021/09/08 08:07:15;;;;;;;4.97;1.75;;;;;;;35.88;10.45;102099.18;1727575;81;21210;-71
2021/09/08 08:09:48;;;;;;;3.75;2.10;;;;;;;36.32;10.51;102099.29;1728367;81;21128;-67
2021/09/08 08:12:21;;;;;;;8.08;2.15;;;;;;;37.11;10.06;102096.75;1727776;81;21246;-65
2021/09/08 08:14:54;;;;;;;10.93;2.30;;;;;;;37.28;9.52;102090.23;1697236;82;21400;-66
2021/09/08 08:17:28;;;;;;;4.87;1.90;;;;;;;36.93;9.90;102091.75;1686004;83;21865;-66
2021/09/08 08:20:01;;;;;;;3.12;1.60;;;;;;;36.37;10.09;102094.70;1679665;83;21307;-65
2021/09/08 08:22:35;;;;;;;11.18;2.30;;;;;;;35.59;10.44;102092.66;1685645;83;21220;-66
2021/09/08 08:25:12;;;;;;;4.80;2.22;;;;;;;35.04;10.60;102087.41;1674418;83;21735;-66
2021/09/08 08:27:45;;;;;;;8.38;2.27;;;;;;;34.82;10.96;102093.39;1687916;84;21355;-66
2021/09/08 08:30:18;;;;;;;8.28;1.72;;;;;;;34.95;10.97;102082.63;1696472;83;21396;-68
2021/09/08 08:32:51;;;;;;;4.40;1.80;;;;;;;35.44;10.96;102081.61;1686605;84;21208;-66
2021/09/08 08:35:33;;;;;;;2.35;1.27;;;;;;;35.93;10.42;102078.24;1691447;83;21263;-65
2021/09/08 08:38:09;;;;;;;4.75;1.50;;;;;;;36.48;10.14;102080.59;1686467;83;21307;-66
2021/09/08 08:40:42;;;;;;;2.40;1.32;;;;;;;37.01;9.53;102067.21;1669282;84;21315;-64
2021/09/08 08:43:15;;;;;;;3.00;1.15;;;;;;;37.42;9.41;102067.62;1689882;84;21347;-66
2021/09/08 08:45:49;;;;;;;10.20;1.70;;;;;;;37.76;9.19;102065.98;1656538;85;21308;-63
2021/09/08 08:52:17;;;;;;;3.80;1.75;;;;;;;37.10;9.26;102063.69;1655951;85;21360;-67
2021/09/08 08:54:51;;;;;;;4.83;1.30;;;;;;;36.33;9.49;102060.83;1666723;85;21253;-65
2021/09/08 08:57:28;;;;;;;5.47;1.55;;;;;;;36.24;9.83;102059.69;1654346;85;21256;-64
2021/09/08 09:00:01;;;;;;;4.03;2.05;;;;;;;36.23;9.95;102057.23;1647828;85;21268;-65
2021/09/08 09:02:34;;;;;;;1.67;1.40;;;;;;;35.99;10.09;102056.80;1687331;83;21168;-68
2021/09/08 09:05:09;;;;;;;2.85;2.02;;;;;;;35.41;10.19;102057.59;1681877;83;21795;-64
2021/09/08 09:07:45;;;;;;;7.97;3.80;;;;;;;34.73;10.62;102045.11;1689855;83;21818;-66
2021/09/08 09:10:20;;;;;;;4.85;1.27;;;;;;;34.33;11.08;102042.08;1689347;83;21293;-65
2021/09/08 09:12:54;;;;;;;3.40;1.30;;;;;;;34.39;10.92;102035.62;1690278;83;21287;-65
2021/09/08 09:15:28;;;;;;;1.30;1.17;;;;;;;34.32;11.13;102030.91;1688451;83;21172;-63
2021/09/08 09:18:13;;;;;;;5.30;1.70;;;;;;;34.10;11.20;102021.91;1728124;81;21151;-63
2021/09/08 09:20:48;;;;;;;3.80;1.60;;;;;;;34.08;11.43;102023.23;1728810;81;22397;-63
2021/09/08 09:23:33;;;;;;;2.62;1.62;;;;;;;34.16;11.65;102017.34;1716899;81;21267;-65
2021/09/08 09:26:09;;;;;;;4.17;1.20;;;;;;;34.14;11.68;102017.61;1685596;83;21200;-65
2021/09/08 09:28:48;;;;;;;4.47;1.45;;;;;;;34.01;11.89;102013.03;1726955;81;21313;-65
2021/09/08 09:31:27;;;;;;;4.50;1.32;;;;;;;33.80;11.68;102007.27;1739954;81;21183;-66
2021/09/08 09:34:05;;;;;;;2.55;1.40;;;;;;;33.48;11.71;101999.39;1722661;81;21227;-63
2021/09/08 09:36:41;;;;;;;3.22;1.47;;;;;;;33.14;11.98;101995.80;1707765;82;21257;-65
2021/09/08 09:39:16;;;;;;;3.75;1.70;;;;;;;32.86;12.12;101997.66;1719687;82;21315;-62
2021/09/08 09:41:54;;;;;;;2.65;1.35;;;;;;;32.59;12.65;101997.38;1730116;81;21925;-61
2021/09/08 09:44:34;;;;;;;4.78;1.80;;;;;;;32.26;12.87;102003.95;1716634;81;21161;-63
2021/09/08 09:47:14;;;;;;;2.77;1.47;;;;;;;31.92;12.85;102002.86;1731323;80;21210;-64
2021/09/08 09:49:58;;;;;;;5.55;1.70;;;;;;;31.53;13.30;102005.69;1727346;81;21148;-63
2021/09/08 09:52:37;;;;;;;2.95;1.37;;;;;;;31.10;13.63;102002.34;1730850;82;21312;-63
2021/09/08 09:55:16;;;;;;;4.67;1.40;;;;;;;30.56;13.67;101995.94;1725766;81;21222;-65
2021/09/08 09:57:54;;;;;;;8.98;2.02;;;;;;;29.95;14.05;101992.37;1729636;81;21746;-64
2021/09/08 10:00:34;;;;;;;3.90;1.50;;;;;;;29.41;14.50;101986.77;1735262;81;21332;-64
2021/09/08 10:03:07;;;;;;;6.15;1.90;;;;;;;28.89;14.84;101989.22;1731533;81;21378;-64
2021/09/08 10:05:48;;;;;;;4.97;1.50;;;;;;;28.43;15.24;101979.92;1735462;81;21788;-64
2021/09/08 10:08:32;;;;;;;9.78;1.70;;;;;;;28.00;15.80;101981.78;1725807;81;21197;-63
2021/09/08 10:11:11;;;;;;;5.42;1.70;;;;;;;27.64;16.85;101984.03;1733311;80;21179;-61
2021/09/08 10:13:53;;;;;;;5.20;1.80;;;;;;;27.38;16.74;101984.00;1731185;81;21265;-64
2021/09/08 10:16:31;;;;;;;2.85;1.70;;;;;;;27.18;16.86;101971.83;1730408;81;21113;-63
2021/09/08 10:19:08;;;;;;;2.77;1.52;;;;;;;26.91;16.91;101971.97;1736603;81;21135;-67
2021/09/08 10:21:47;;;;;;;5.62;1.62;;;;;;;26.59;17.30;101973.45;1730385;82;21850;-64
2021/09/08 10:24:28;;;;;;;5.45;1.40;;;;;;;26.28;17.83;101971.22;1733976;81;21283;-69
2021/09/08 10:26:57;;;;;;;2.30;1.32;;;;;;;25.94;17.52;101974.67;1739196;81;21240;-66
2021/09/08 10:29:31;;;;;;;4.92;1.40;;;;;;;25.54;18.04;101971.84;1732903;81;21339;-65
2021/09/08 10:32:09;;;;;;;3.30;1.55;;;;;;;25.30;18.16;101969.84;1716863;81;21302;-64
2021/09/08 10:34:46;;;;;;;3.67;1.52;;;;;;;25.13;18.66;101963.56;1731007;82;21220;-65
2021/09/08 10:37:20;;;;;;;4.10;1.30;;;;;;;24.92;18.85;101964.38;1730970;81;21176;-63
2021/09/08 10:39:57;;;;;;;4.12;1.30;;;;;;;24.76;18.94;101959.21;1733920;81;21480;-62
2021/09/08 10:42:57;;;;;;;2.60;1.20;;;;;;;24.60;18.81;101960.73;1713071;82;21347;-66
2021/09/08 10:45:32;;;;;;;3.17;1.47;;;;;;;24.50;19.31;101962.89;1731172;82;21181;-65
2021/09/08 10:48:05;;;;;;;4.65;2.20;;;;;;;24.47;19.15;101962.75;1735498;81;21303;-65
2021/09/08 10:50:43;;;;;;;;;;;;;;;24.42;19.28;101961.14;1731589;82;21304;-65
2021/09/08 10:53:31;;;;;;;2.15;1.65;;;;;;;24.37;19.36;101958.68;1733179;81;20258;-64
2021/09/08 10:56:10;;;;;;;5.35;1.75;;;;;;;24.30;19.15;101949.23;1733523;81;21273;-61
2021/09/08 10:59:01;;;;;;;4.05;2.17;;;;;;;24.28;19.71;101942.39;1737719;81;21287;-66
2021/09/08 11:01:37;;;;;;;5.92;1.92;;;;;;;24.27;19.74;101944.73;1735448;81;21189;-67
2021/09/08 11:04:14;;;;;;;;;;;;;;;24.21;20.10;101948.16;1739466;81;21339;-65
2021/09/08 11:06:49;;;;;;;4.72;1.55;;;;;;;24.16;20.10;101939.86;1732790;82;20630;-67
2021/09/08 11:09:25;;;;;;;6.47;2.08;;;;;;;24.10;20.14;101932.05;1734845;81;21285;-67
2021/09/08 11:12:01;;;;;;;3.90;1.70;;;;;;;24.11;20.30;101941.75;1733818;81;21121;-66
2021/09/08 11:14:52;;;;;;;7.35;1.40;;;;;;;24.01;20.06;101941.98;1733953;81;21214;-66
2021/09/08 11:17:28;;;;;;;5.08;1.60;;;;;;;23.71;19.69;101938.11;1734402;81;21190;-65
2021/09/08 11:20:14;;;;;;;4.80;1.40;;;;;;;23.52;20.47;101933.26;1728887;81;21217;-64
2021/09/08 11:23:09;;;;;;;5.30;1.33;;;;;;;23.52;20.47;101933.26;1727762;81;21189;-63
2021/09/08 11:25:45;;;;;;;3.05;1.60;;;;;;;23.37;20.60;101938.55;1729504;81;21179;-64
2021/09/08 11:28:18;;;;;;;5.62;1.40;;;;;;;23.27;21.22;101932.08;1732308;81;21314;-64
2021/09/08 11:30:51;;;;;;;2.70;1.60;;;;;;;23.23;21.12;101925.94;1729739;81;21360;-65
2021/09/08 11:33:36;;;;;;;4.80;2.27;;;;;;;23.26;21.26;101928.27;1730976;80;21302;-67
2021/09/08 11:36:20;;;;;;;5.55;1.87;;;;;;;23.30;21.56;101926.39;1724351;81;21214;-65
2021/09/08 11:38:59;;;;;;;2.83;1.60;;;;;;;23.44;21.47;101922.96;1728652;81;21191;-67
2021/09/08 11:41:32;;;;;;;4.65;1.80;;;;;;;23.44;21.47;101922.96;1732762;81;21879;-66
2021/09/08 11:44:06;;;;;;;3.77;1.77;;;;;;;23.55;21.62;101916.87;1743212;81;21339;-66
2021/09/08 11:46:40;;;;;;;2.58;1.67;;;;;;;23.59;21.53;101900.28;1698752;82;21345;-65
2021/09/08 11:49:14;;;;;;;6.00;1.98;;;;;;;23.59;21.53;101900.28;1732762;81;21302;-66
2021/09/08 11:51:47;;;;;;;7.40;2.00;;;;;;;23.54;21.83;101902.66;1731706;81;21179;-66
2021/09/08 11:54:24;;;;;;;3.12;1.80;;;;;;;23.56;21.65;101896.62;1731378;81;21111;-68
2021/09/08 11:57:02;;;;;;;3.45;2.22;;;;;;;23.60;21.84;101901.09;1737847;81;21757;-68
2021/09/08 11:59:36;;;;;;;4.72;2.37;;;;;;;23.66;21.99;101899.05;1732590;81;21293;-70
2021/09/08 12:02:09;;;;;;;2.65;1.62;;;;;;;23.69;21.97;101899.50;1736164;81;21321;-66
2021/09/08 12:04:44;;;;;;;4.17;1.40;;;;;;;23.69;21.42;101902.70;1733058;81;21138;-64